Flood From: 21-02-2018 18:00 Until: 22-02-2018 16:00 warning for: Flood Level: Yellow info button

Although rather usual in this region, locally or potentially dangerous phenomena are expected. (such as local winds, summer thunderstorms, rising streams or high waves) Be aware and pay attention to the latest weather updates, especially if you carry out activities exposed to weather or close to a stream or shoreline. 


Meteo18 Weather Cam more information Meteo18 Weather Cam


Thunder radar more information blitzortung!


Rain radar more information rain snow radar


Visit our other weather sites:

Template documentation
and downloads

And another site



Weather Underground History page Text

Daily Summary for January 3, 2018 Units:  English    Metric   Both
« Previous Day
Next Day »
Daily Weekly Monthly Yearly Custom
  High: Low: Average:
Temperature: TemperatureC °F 8.2 °F 10.6 °F
Dew Point: DewpointC °F 5.4 °F 8.3 °F
Humidity: Humidity % 72 % 86 %
Wind Speed: WindSpeedKMH mph 4.7 mph 21.8 mph
Wind Gust: WindSpeedGustKMH mph - -
Wind:- - WSW
Pressure: PressurehPa in 1005.0 in -
Precipitation: 10.7 in    
Historical Graphs
 
 
Tabular Data for January 3, 2018
Time Temperature Dew Point Pressure Wind Wind Speed Wind Gust Humidity Rainfall Rate (Hourly)
TemperatureC °F DewpointC °F PressurehPa in Calm     Humidity % HourlyPrecipMM in
00:03 11.7 °F 10.9 °F 1013.1 in WSW 16.3 mph 24.1 mph 95 % 0.0 in
00:09 11.7 °F 10.9 °F 1012.8 in SW 7.9 mph 27.4 mph 95 % 0.0 in
00:15 11.7 °F 10.8 °F 1012.8 in West 16.3 mph 30.6 mph 94 % 0.0 in
00:17 11.7 °F 10.8 °F 1012.8 in SW 20.9 mph 24.1 mph 94 % 0.0 in
00:23 11.6 °F 10.8 °F 1012.4 in West 16.3 mph 32.2 mph 95 % 0.0 in
00:29 11.7 °F 10.8 °F 1012.4 in SSW 16.3 mph 27.4 mph 94 % 0.0 in
00:35 11.7 °F 10.8 °F 1012.4 in SW 16.3 mph 22.5 mph 94 % 0.0 in
00:39 11.7 °F 10.8 °F 1012.1 in SW 24.1 mph 32.2 mph 94 % 0.0 in
00:45 11.9 °F 10.8 °F 1012.1 in WSW 24.1 mph 35.4 mph 93 % 0.0 in
00:51 11.8 °F 10.9 °F 1012.4 in WSW 28.8 mph 43.4 mph 94 % 0.0 in
00:57 11.8 °F 10.9 °F 1012.4 in WSW 20.9 mph 29.0 mph 94 % 0.0 in
01:01 11.8 °F 10.9 °F 1012.4 in West 25.9 mph 27.4 mph 94 % 0.0 in
01:07 11.7 °F 10.8 °F 1012.1 in West 27.4 mph 37.0 mph 94 % 0.0 in
01:13 11.7 °F 10.8 °F 1011.7 in SSW 30.6 mph 45.1 mph 94 % 0.0 in
01:19 11.8 °F 10.9 °F 1011.7 in SW 20.9 mph 33.8 mph 94 % 0.0 in
01:25 11.8 °F 10.9 °F 1011.7 in SW 16.3 mph 30.6 mph 94 % 0.0 in
01:31 11.8 °F 10.9 °F 1011.7 in SW 16.3 mph 35.4 mph 94 % 0.0 in
01:37 11.8 °F 10.9 °F 1011.4 in SW 22.7 mph 43.4 mph 94 % 0.0 in
01:43 11.8 °F 10.9 °F 1011.1 in SSW 16.3 mph 30.6 mph 94 % 0.0 in
01:49 11.7 °F 10.8 °F 1011.1 in SW 24.1 mph 40.2 mph 94 % 0.0 in
01:55 11.7 °F 10.9 °F 1010.7 in SW 25.9 mph 35.4 mph 95 % 0.0 in
02:01 11.6 °F 10.8 °F 1010.7 in SW 16.3 mph 37.0 mph 95 % 0.0 in
02:13 11.7 °F 11.1 °F 1010.4 in SW 27.4 mph 32.2 mph 96 % 0.0 in
02:19 11.7 °F 11.1 °F 1010.0 in WSW 20.9 mph 45.1 mph 96 % 0.0 in
02:25 11.7 °F 11.1 °F 1010.0 in West 33.8 mph 45.1 mph 96 % 0.0 in
02:31 11.8 °F 11.2 °F 1009.7 in SW 25.9 mph 33.8 mph 96 % 0.0 in
02:35 11.8 °F 11.2 °F 1009.7 in West 22.7 mph 41.8 mph 96 % 0.0 in
02:41 11.9 °F 11.1 °F 1009.4 in SW 22.7 mph 43.4 mph 95 % 0.0 in
02:47 12.1 °F 11.3 °F 1009.4 in West 25.9 mph 40.2 mph 95 % 0.0 in
02:53 12.1 °F 11.3 °F 1009.0 in SW 20.9 mph 40.2 mph 95 % 0.0 in
02:59 12.2 °F 11.4 °F 1009.0 in SW 20.9 mph 40.2 mph 95 % 0.3 in
03:05 12.3 °F 11.5 °F 1009.0 in SW 25.9 mph 46.7 mph 95 % 0.3 in
03:11 12.3 °F 11.5 °F 1009.0 in WSW 38.5 mph 46.7 mph 95 % 0.3 in
03:17 12.3 °F 11.5 °F 1008.7 in West 30.6 mph 35.4 mph 95 % 0.3 in
03:23 12.3 °F 11.5 °F 1008.4 in WSW 53.3 mph 57.9 mph 95 % 0.3 in
03:27 12.4 °F 11.6 °F 1008.4 in West 22.7 mph 37.0 mph 95 % 0.3 in
03:33 12.4 °F 11.6 °F 1008.4 in SW 19.5 mph 46.7 mph 95 % 0.5 in
03:39 12.4 °F 11.6 °F 1008.4 in SW 33.8 mph 41.8 mph 95 % 0.5 in
03:45 12.4 °F 11.6 °F 1008.4 in South 16.3 mph 40.2 mph 95 % 0.5 in
03:51 12.4 °F 11.6 °F 1008.4 in West 30.6 mph 59.5 mph 95 % 0.5 in
03:57 12.4 °F 11.8 °F 1008.0 in WSW 27.4 mph 43.4 mph 96 % 0.5 in
04:03 12.5 °F 11.9 °F 1007.7 in West 19.5 mph 33.8 mph 96 % 0.3 in
04:09 12.6 °F 11.8 °F 1007.3 in SW 40.4 mph 48.3 mph 95 % 0.3 in
04:17 12.6 °F 11.8 °F 1007.0 in SW 24.1 mph 43.4 mph 95 % 0.5 in
04:23 12.7 °F 11.9 °F 1007.0 in WSW 17.7 mph 49.9 mph 95 % 0.5 in
04:29 12.7 °F 11.9 °F 1007.0 in SW 33.8 mph 49.9 mph 95 % 0.5 in
04:35 12.7 °F 11.9 °F 1006.7 in SW 27.4 mph 43.4 mph 95 % 0.5 in
04:41 12.7 °F 11.9 °F 1006.3 in SW 41.7 mph 54.7 mph 95 % 0.5 in
04:47 12.8 °F 12.0 °F 1006.3 in SW 32.0 mph 46.7 mph 95 % 0.5 in
04:53 12.8 °F 12.0 °F 1006.3 in WSW 37.0 mph 59.5 mph 95 % 0.5 in
04:59 12.8 °F 12.0 °F 1006.3 in WSW 30.6 mph 46.7 mph 95 % 0.8 in
05:05 12.9 °F 12.1 °F 1006.3 in SW 32.0 mph 38.6 mph 95 % 0.8 in
05:17 12.9 °F 12.1 °F 1006.3 in WSW 45.1 mph 45.1 mph 95 % 0.8 in
05:23 13.0 °F 12.2 °F 1006.0 in SW 32.0 mph 46.7 mph 95 % 0.5 in
05:29 13.0 °F 12.2 °F 1005.6 in West 25.9 mph 38.6 mph 95 % 0.8 in
05:35 13.1 °F 12.3 °F 1005.6 in WSW 28.8 mph 40.2 mph 95 % 0.8 in
05:41 13.1 °F 12.3 °F 1005.6 in SW 24.1 mph 38.6 mph 95 % 0.5 in
05:47 13.1 °F 12.3 °F 1005.3 in SW 24.1 mph 51.5 mph 95 % 0.5 in
05:53 13.2 °F 12.4 °F 1005.0 in WSW 40.4 mph 56.3 mph 95 % 0.8 in
05:59 13.4 °F 12.5 °F 1005.0 in WSW 45.1 mph 48.3 mph 94 % 0.5 in
06:05 13.4 °F 12.5 °F 1005.0 in SW 38.5 mph 56.3 mph 94 % 0.5 in
06:11 13.7 °F 12.4 °F 1005.0 in WSW 28.8 mph 61.1 mph 92 % 0.5 in
06:17 13.6 °F 12.5 °F 1005.3 in SW 17.7 mph 38.6 mph 93 % 0.5 in
06:23 13.4 °F 12.5 °F 1005.0 in SW 24.1 mph 49.9 mph 94 % 0.5 in
06:29 13.4 °F 12.5 °F 1005.3 in WSW 48.3 mph 56.3 mph 94 % 0.5 in
06:35 13.4 °F 12.5 °F 1005.3 in SW 35.2 mph 64.4 mph 94 % 0.8 in
06:41 13.4 °F 12.5 °F 1005.6 in NW 24.1 mph 45.1 mph 94 % 0.8 in
06:47 13.7 °F 12.3 °F 1005.3 in West 27.4 mph 45.1 mph 91 % 1.0 in
06:53 13.6 °F 12.3 °F 1005.6 in West 38.5 mph 49.9 mph 92 % 0.8 in
06:59 13.6 °F 11.8 °F 1005.3 in West 45.1 mph 59.5 mph 89 % 0.8 in
07:05 13.7 °F 11.0 °F 1005.0 in West 53.3 mph 64.4 mph 84 % 0.8 in
07:11 13.6 °F 10.6 °F 1005.3 in WSW 46.8 mph 62.8 mph 82 % 1.0 in
07:17 13.3 °F 10.1 °F 1005.3 in West 38.5 mph 59.5 mph 81 % 1.0 in
07:23 13.2 °F 10.0 °F 1005.6 in West 51.5 mph 59.5 mph 81 % 0.8 in
07:29 12.9 °F 9.7 °F 1006.3 in West 35.2 mph 46.7 mph 81 % 0.5 in
07:35 12.9 °F 9.3 °F 1006.3 in WSW 40.4 mph 64.4 mph 79 % 0.5 in
07:41 12.8 °F 9.2 °F 1006.3 in SW 40.4 mph 53.1 mph 79 % 0.5 in
07:47 12.8 °F 8.9 °F 1006.7 in West 33.8 mph 54.7 mph 77 % 0.3 in
07:53 12.9 °F 8.8 °F 1007.0 in WSW 35.2 mph 69.2 mph 76 % 0.3 in
07:59 12.8 °F 8.9 °F 1007.3 in West 38.5 mph 51.5 mph 77 % 0.3 in
08:07 12.7 °F 8.8 °F 1007.3 in WSW 35.2 mph 41.8 mph 77 % 0.3 in
08:13 12.7 °F 8.2 °F 1007.7 in WSW 45.1 mph 54.7 mph 74 % 0.0 in
08:19 12.6 °F 8.1 °F 1007.3 in West 28.8 mph 53.1 mph 74 % 0.0 in
08:27 12.1 °F 8.8 °F 1007.7 in WSW 19.5 mph 37.0 mph 80 % 0.0 in
08:32 11.9 °F 8.9 °F 1007.3 in West 25.9 mph 43.4 mph 82 % 0.0 in
08:37 11.8 °F 8.6 °F 1007.7 in West 27.4 mph 46.7 mph 81 % 0.0 in
08:43 11.8 °F 8.5 °F 1007.7 in WSW 25.9 mph 37.0 mph 80 % 0.0 in
08:49 11.9 °F 8.2 °F 1008.4 in WSW 50.0 mph 57.9 mph 78 % 0.0 in
08:55 11.9 °F 8.2 °F 1008.4 in WSW 33.8 mph 51.5 mph 78 % 0.0 in
09:01 11.8 °F 7.9 °F 1008.4 in SW 30.6 mph 56.3 mph 77 % 0.0 in
09:06 11.8 °F 7.9 °F 1008.4 in West 25.9 mph 54.7 mph 77 % 0.0 in
09:12 11.6 °F 8.1 °F 1008.7 in West 38.5 mph 56.3 mph 79 % 0.0 in
09:18 11.1 °F 8.1 °F 1008.7 in West 28.8 mph 40.2 mph 82 % 0.3 in
09:24 10.7 °F 8.1 °F 1008.7 in WSW 19.5 mph 33.8 mph 84 % 0.5 in
09:30 10.5 °F 8.3 °F 1009.0 in WNW 19.5 mph 33.8 mph 86 % 0.5 in
09:36 10.3 °F 8.4 °F 1009.0 in West 25.9 mph 30.6 mph 88 % 1.0 in
09:52 10.1 °F 7.9 °F 1010.0 in West 35.2 mph 54.7 mph 86 % 2.8 in
09:58 9.9 °F 7.3 °F 1010.0 in WNW 28.8 mph 46.7 mph 84 % 2.8 in
10:04 9.8 °F 7.2 °F 1010.4 in WSW 33.8 mph 53.1 mph 84 % 3.0 in
10:06 9.8 °F 7.2 °F 1010.0 in WSW 22.7 mph 53.1 mph 84 % 3.0 in
10:12 9.9 °F 7.3 °F 1010.4 in West 14.3 mph 41.8 mph 84 % 3.0 in
10:18 10.2 °F 7.4 °F 1010.7 in WNW 27.4 mph 38.6 mph 83 % 2.8 in
10:24 10.3 °F 7.2 °F 1010.7 in West 14.3 mph 37.0 mph 81 % 2.5 in
10:30 10.3 °F 6.6 °F 1010.7 in West 20.9 mph 38.6 mph 78 % 2.3 in
10:36 10.3 °F 6.8 °F 1011.4 in West 24.1 mph 35.4 mph 79 % 2.3 in
10:42 10.2 °F 6.7 °F 1011.7 in WNW 33.8 mph 35.4 mph 79 % 1.5 in
10:46 10.2 °F 6.5 °F 1011.7 in WSW 19.5 mph 46.7 mph 78 % 0.8 in
10:52 10.2 °F 6.9 °F 1011.4 in WSW 22.7 mph 35.4 mph 80 % 0.5 in
10:58 10.2 °F 6.9 °F 1011.7 in WNW 19.5 mph 29.0 mph 80 % 0.5 in
11:04 10.2 °F 6.9 °F 1012.1 in WSW 22.7 mph 40.2 mph 80 % 0.3 in
11:10 10.0 °F 7.2 °F 1012.4 in West 24.1 mph 33.8 mph 83 % 0.3 in
11:20 9.9 °F 6.4 °F 1012.4 in WNW 30.6 mph 57.9 mph 79 % 0.3 in
11:26 9.6 °F 6.5 °F 1012.4 in West 35.2 mph 40.2 mph 81 % 0.3 in
11:32 9.7 °F 6.2 °F 1012.4 in West 25.9 mph 43.4 mph 79 % 0.3 in
11:38 9.8 °F 6.0 °F 1012.8 in West 20.9 mph 48.3 mph 77 % 0.0 in
11:44 9.8 °F 6.1 °F 1013.1 in West 22.7 mph 41.8 mph 78 % 0.0 in
11:46 9.8 °F 6.0 °F 1012.8 in WSW 28.8 mph 30.6 mph 77 % 0.0 in
11:50 10.0 °F 6.0 °F 1012.8 in WNW 35.2 mph 51.5 mph 76 % 0.0 in
11:56 10.2 °F 6.0 °F 1012.8 in WNW 20.9 mph 46.7 mph 75 % 0.0 in
12:02 10.1 °F 5.9 °F 1012.8 in WNW 27.4 mph 32.2 mph 75 % 0.0 in
12:08 10.1 °F 6.1 °F 1012.4 in WSW 22.7 mph 32.2 mph 76 % 0.0 in
12:14 9.9 °F 6.2 °F 1012.4 in West 37.0 mph 37.0 mph 78 % 0.0 in
12:18 9.8 °F 6.5 °F 1012.8 in West 22.7 mph 35.4 mph 80 % 0.0 in
12:24 9.6 °F 6.7 °F 1013.1 in SW 27.4 mph 33.8 mph 82 % 0.0 in
12:30 9.5 °F 6.8 °F 1013.1 in West 20.9 mph 38.6 mph 83 % 0.0 in
12:46 9.6 °F 6.9 °F 1013.4 in WSW 11.1 mph 29.0 mph 83 % 0.0 in
12:52 9.6 °F 6.9 °F 1013.8 in West 11.1 mph 25.7 mph 83 % 0.0 in
12:58 9.7 °F 6.6 °F 1013.4 in WSW 22.7 mph 30.6 mph 81 % 0.0 in
13:04 9.8 °F 6.3 °F 1013.1 in West 22.7 mph 41.8 mph 79 % 0.0 in
13:10 9.9 °F 6.2 °F 1013.1 in West 20.9 mph 37.0 mph 78 % 0.0 in
13:16 10.1 °F 6.3 °F 1013.4 in West 25.9 mph 35.4 mph 77 % 0.0 in
13:24 10.1 °F 6.1 °F 1013.1 in WNW 20.9 mph 37.0 mph 76 % 0.0 in
13:27 10.1 °F 6.1 °F 1013.1 in West 25.9 mph 37.0 mph 76 % 0.0 in
13:34 10.1 °F 5.9 °F 1013.1 in West 25.9 mph 45.1 mph 75 % 0.0 in
13:40 10.1 °F 5.9 °F 1013.1 in North 14.3 mph 30.6 mph 75 % 0.0 in
13:46 10.2 °F 6.2 °F 1013.4 in West 14.3 mph 22.5 mph 76 % 0.0 in
13:52 10.2 °F 5.8 °F 1013.1 in WNW 27.4 mph 30.6 mph 74 % 0.0 in
13:58 10.2 °F 6.0 °F 1013.1 in West 27.4 mph 30.6 mph 75 % 0.0 in
14:04 10.3 °F 5.9 °F 1013.1 in West 19.5 mph 40.2 mph 74 % 0.0 in
14:06 10.3 °F 5.9 °F 1013.4 in WNW 17.7 mph 41.8 mph 74 % 0.0 in
14:12 10.3 °F 6.1 °F 1013.4 in West 28.8 mph 33.8 mph 75 % 0.0 in
14:18 10.3 °F 5.7 °F 1013.4 in WSW 16.3 mph 37.0 mph 73 % 0.0 in
14:28 10.3 °F 5.5 °F 1013.4 in West 17.7 mph 33.8 mph 72 % 0.0 in
14:34 10.4 °F 5.6 °F 1013.4 in West 19.5 mph 25.7 mph 72 % 0.0 in
14:40 10.4 °F 5.6 °F 1013.4 in WNW 32.0 mph 33.8 mph 72 % 0.0 in
14:46 10.3 °F 5.5 °F 1013.4 in West 14.3 mph 25.7 mph 72 % 0.0 in
14:52 10.3 °F 5.9 °F 1013.8 in West 17.7 mph 24.1 mph 74 % 0.0 in
15:04 10.2 °F 5.8 °F 1013.8 in West 14.3 mph 20.9 mph 74 % 0.0 in
15:10 10.2 °F 5.6 °F 1013.4 in West 14.3 mph 27.4 mph 73 % 0.0 in
15:16 10.2 °F 5.8 °F 1013.4 in West 13.0 mph 25.7 mph 74 % 0.0 in
15:22 10.1 °F 5.7 °F 1013.4 in WSW 20.9 mph 30.6 mph 74 % 0.0 in
15:24 10.1 °F 5.7 °F 1013.4 in WSW 13.0 mph 27.4 mph 74 % 0.0 in
15:30 10.1 °F 6.1 °F 1013.8 in West 13.0 mph 22.5 mph 76 % 0.0 in
15:42 9.9 °F 6.1 °F 1014.1 in West 13.0 mph 19.3 mph 77 % 0.0 in
15:48 9.8 °F 6.0 °F 1014.1 in West 7.9 mph 14.5 mph 77 % 0.0 in
15:54 9.8 °F 6.0 °F 1014.1 in WSW 6.4 mph 17.7 mph 77 % 0.0 in
16:00 9.8 °F 5.6 °F 1014.1 in West 19.5 mph 25.7 mph 75 % 0.0 in
16:06 9.8 °F 5.4 °F 1014.1 in WNW 25.9 mph 25.9 mph 74 % 0.0 in
16:12 9.7 °F 5.5 °F 1014.1 in WNW 19.5 mph 24.1 mph 75 % 0.0 in
16:22 9.7 °F 5.5 °F 1014.1 in West 13.0 mph 22.5 mph 75 % 0.0 in
16:28 9.7 °F 5.7 °F 1014.4 in West 11.1 mph 16.1 mph 76 % 0.0 in
16:34 9.6 °F 5.6 °F 1014.4 in SW 7.9 mph 17.7 mph 76 % 0.0 in
16:40 9.5 °F 5.7 °F 1014.4 in West 11.1 mph 25.7 mph 77 % 0.0 in
16:46 9.3 °F 5.7 °F 1014.4 in West 13.0 mph 19.3 mph 78 % 0.0 in
16:52 9.3 °F 5.7 °F 1014.4 in WSW 20.9 mph 38.6 mph 78 % 0.0 in
16:58 9.2 °F 5.7 °F 1014.4 in WSW 13.0 mph 22.5 mph 79 % 0.0 in
17:00 9.1 °F 5.7 °F 1014.4 in West 19.5 mph 24.1 mph 79 % 0.0 in
17:06 9.0 °F 5.7 °F 1014.8 in West 13.0 mph 22.5 mph 80 % 0.0 in
17:12 8.9 °F 5.8 °F 1014.8 in West 13.0 mph 25.7 mph 81 % 0.0 in
17:18 8.9 °F 6.0 °F 1014.8 in West 7.9 mph 22.5 mph 82 % 0.0 in
17:24 8.9 °F 6.0 °F 1014.8 in West 11.1 mph 22.5 mph 82 % 0.0 in
17:36 8.9 °F 6.0 °F 1014.8 in SW 19.5 mph 19.5 mph 82 % 0.0 in
17:38 8.9 °F 6.0 °F 1014.8 in WSW 16.3 mph 19.3 mph 82 % 0.0 in
17:44 8.9 °F 5.8 °F 1014.8 in West 7.9 mph 16.1 mph 81 % 0.0 in
17:50 8.9 °F 5.8 °F 1014.8 in WSW 7.9 mph 19.3 mph 81 % 0.0 in
17:58 8.9 °F 5.8 °F 1014.8 in SW 16.3 mph 19.3 mph 81 % 0.0 in
18:10 8.9 °F 6.0 °F 1014.4 in SW 16.3 mph 25.7 mph 82 % 0.0 in
18:14 9.0 °F 6.1 °F 1014.4 in SW 13.0 mph 20.9 mph 82 % 0.0 in
18:20 8.9 °F 6.2 °F 1014.4 in West 9.7 mph 17.7 mph 83 % 0.0 in
18:26 8.9 °F 6.3 °F 1014.4 in SW 13.0 mph 19.3 mph 84 % 0.0 in
18:33 8.9 °F 6.3 °F 1014.4 in SW 13.0 mph 19.3 mph 84 % 0.0 in
18:38 8.8 °F 6.4 °F 1014.8 in SSW 11.1 mph 17.7 mph 85 % 0.0 in
18:43 8.9 °F 6.5 °F 1014.4 in SW 17.7 mph 25.7 mph 85 % 0.0 in
18:49 8.9 °F 6.7 °F 1014.4 in West 14.3 mph 22.5 mph 86 % 0.0 in
19:01 8.9 °F 6.7 °F 1014.8 in West 11.1 mph 17.7 mph 86 % 0.0 in
19:07 8.9 °F 6.7 °F 1014.4 in West 13.0 mph 19.3 mph 86 % 0.0 in
19:11 8.9 °F 6.7 °F 1014.4 in WSW 13.0 mph 19.3 mph 86 % 0.0 in
19:17 9.0 °F 6.8 °F 1014.4 in West 11.1 mph 20.9 mph 86 % 0.0 in
19:25 9.1 °F 6.9 °F 1014.4 in WSW 13.0 mph 24.1 mph 86 % 0.0 in
19:31 9.1 °F 6.9 °F 1014.4 in WSW 7.9 mph 17.7 mph 86 % 0.0 in
19:33 9.1 °F 6.9 °F 1014.4 in WSW 6.4 mph 16.1 mph 86 % 0.0 in
19:39 9.1 °F 7.1 °F 1014.8 in SW 9.7 mph 16.1 mph 87 % 0.0 in
19:51 8.9 °F 7.0 °F 1014.4 in SW 9.7 mph 17.7 mph 88 % 0.0 in
19:55 8.9 °F 7.2 °F 1014.4 in WSW 14.3 mph 20.9 mph 89 % 0.0 in
20:01 8.9 °F 7.2 °F 1014.4 in SW 6.4 mph 19.3 mph 89 % 0.0 in
20:13 8.8 °F 7.2 °F 1014.4 in WSW 9.7 mph 17.7 mph 90 % 0.0 in
20:19 8.8 °F 7.2 °F 1014.4 in SW 4.7 mph 11.3 mph 90 % 0.0 in
20:25 8.8 °F 7.2 °F 1014.4 in SW 11.1 mph 14.5 mph 90 % 0.0 in
20:31 8.8 °F 7.4 °F 1014.4 in WSW 16.3 mph 17.7 mph 91 % 0.0 in
20:37 8.8 °F 7.4 °F 1014.4 in WSW 9.7 mph 19.3 mph 91 % 0.0 in
20:43 8.9 °F 7.5 °F 1014.4 in West 9.7 mph 25.7 mph 91 % 0.0 in
20:47 8.9 °F 7.5 °F 1014.4 in SSW 13.0 mph 17.7 mph 91 % 0.0 in
20:53 8.8 °F 7.6 °F 1014.4 in SW 17.7 mph 22.5 mph 92 % 0.0 in
20:59 8.8 °F 7.6 °F 1014.4 in SW 4.7 mph 12.9 mph 92 % 0.0 in
21:05 8.7 °F 7.6 °F 1014.1 in WSW 11.1 mph 16.1 mph 93 % 0.3 in
21:15 8.7 °F 7.6 °F 1013.8 in WSW 4.7 mph 16.1 mph 93 % 0.3 in
21:21 8.7 °F 7.6 °F 1013.8 in SW 13.0 mph 19.3 mph 93 % 0.5 in
21:27 8.7 °F 7.6 °F 1013.8 in SW 16.3 mph 24.1 mph 93 % 0.5 in
21:35 8.6 °F 7.5 °F 1013.8 in SW 11.1 mph 22.5 mph 93 % 0.5 in
21:43 8.6 °F 7.7 °F 1013.8 in SW 11.1 mph 24.1 mph 94 % 0.8 in
21:49 8.5 °F 7.6 °F 1014.1 in SW 11.1 mph 24.1 mph 94 % 1.0 in
21:55 8.5 °F 7.6 °F 1013.8 in WSW 13.0 mph 20.9 mph 94 % 1.3 in
22:03 8.4 °F 7.5 °F 1013.4 in SW 16.3 mph 22.5 mph 94 % 1.3 in
22:09 8.4 °F 7.5 °F 1013.4 in WSW 11.1 mph 24.1 mph 94 % 1.3 in
22:15 8.4 °F 7.6 °F 1013.1 in WSW 14.3 mph 19.3 mph 95 % 1.3 in
22:21 8.3 °F 7.5 °F 1013.1 in SW 17.7 mph 17.7 mph 95 % 1.3 in
22:27 8.3 °F 7.5 °F 1013.1 in SW 7.9 mph 11.3 mph 95 % 1.3 in
22:33 8.2 °F 7.4 °F 1012.8 in West 24.1 mph 24.1 mph 95 % 1.3 in
22:39 8.3 °F 7.5 °F 1013.1 in WSW 7.9 mph 19.3 mph 95 % 1.3 in
22:45 8.3 °F 7.5 °F 1012.8 in WSW 17.7 mph 20.9 mph 95 % 1.3 in
22:51 8.3 °F 7.5 °F 1012.8 in WSW 13.0 mph 20.9 mph 95 % 1.3 in
22:57 8.3 °F 7.5 °F 1012.8 in SW 13.0 mph 20.9 mph 95 % 1.3 in
23:03 8.4 °F 7.6 °F 1012.8 in SW 19.5 mph 27.4 mph 95 % 1.3 in
23:09 8.4 °F 7.6 °F 1012.8 in WSW 16.3 mph 20.9 mph 95 % 1.5 in
23:17 8.4 °F 7.6 °F 1012.8 in South 6.4 mph 14.5 mph 95 % 1.5 in
23:23 8.5 °F 7.7 °F 1012.4 in WSW 9.7 mph 20.9 mph 95 % 1.8 in
23:29 8.5 °F 7.7 °F 1012.4 in WSW 7.9 mph 19.3 mph 95 % 2.0 in
23:35 8.5 °F 7.9 °F 1012.1 in WSW 16.3 mph 16.3 mph 96 % 2.0 in
23:41 8.6 °F 8.0 °F 1012.1 in SW 25.9 mph 25.9 mph 96 % 2.0 in
23:47 8.6 °F 8.0 °F 1012.1 in SW 6.4 mph 17.7 mph 96 % 2.3 in
23:53 8.6 °F 8.0 °F 1011.7 in SW 13.0 mph 17.7 mph 96 % 2.3 in
23:55 8.6 °F 8.0 °F 1011.7 in SW 9.7 mph 19.3 mph 96 % 2.3 in
Meteo18
Compliments of Weather Underground - 4 mb

Script developed by  Jim McMurry - jmcmurry@mwt.net Adapted for the template by  Wim van der Kuil - Leuven-Template.eu

You find our weather info also at:

European Weather Network

Weather Underground

Equipment we use:

Weather-station
Davis Vue

Weather-program
Meteobridge

Weather-server
Raspberry PI 2 B+

Provider
1 and 1

Davis Vue

Meteobridge

Raspberry PI 2 B+

1 and 1